Time;durP1;ratioP1;P1;durP2;ratioP2;P2;SDS_P1;SDS_P2;PMS_P1;PMS_P2;Temp;Humidity;BMP_temperature;BMP_pressure;BME280_temperature;BME280_humidity;BME280_pressure;Samples;Min_cycle;Max_cycle;Signal;HPM_P1;HPM_P2
2021/10/05 00:02:18;;;;;;;7.28;1.40;;;;;13.70;100961.00;;;;4884382;29;20489;-78
2021/10/05 00:04:48;;;;;;;7.60;1.52;;;;;13.70;100943.00;;;;4880618;29;20044;-79
2021/10/05 00:07:18;;;;;;;6.57;1.42;;;;;13.70;100965.00;;;;4885088;29;20488;-79
2021/10/05 00:09:48;;;;;;;7.20;1.80;;;;;13.90;100969.00;;;;4883766;29;20041;-78
2021/10/05 00:12:17;;;;;;;12.63;1.95;;;;;14.00;100977.00;;;;4883263;29;20040;-77
2021/10/05 00:14:50;;;;;;;8.07;1.58;;;;;13.90;100965.00;;;;4881435;29;20037;-78
2021/10/05 00:17:20;;;;;;;8.10;1.50;;;;;13.90;100978.00;;;;4882120;29;20080;-80
2021/10/05 00:19:50;;;;;;;7.57;1.75;;;;;13.80;100968.00;;;;4884076;29;20072;-81
2021/10/05 00:22:19;;;;;;;8.52;1.75;;;;;13.80;100977.00;;;;4882960;29;20048;-77
2021/10/05 00:24:49;;;;;;;3.92;1.48;;;;;13.70;100989.00;;;;4884044;29;20054;-80
2021/10/05 00:27:18;;;;;;;12.85;2.75;;;;;13.70;100968.00;;;;4884695;29;20837;-78
2021/10/05 00:29:47;;;;;;;7.07;1.75;;;;;13.70;100981.00;;;;4884177;29;20045;-80
2021/10/05 00:32:17;;;;;;;8.93;2.22;;;;;13.60;100985.00;;;;4882395;29;20064;-79
2021/10/05 00:34:46;;;;;;;6.18;1.70;;;;;13.60;100982.00;;;;4883153;29;20123;-80
2021/10/05 00:37:16;;;;;;;10.07;1.95;;;;;13.60;100986.00;;;;4889863;29;20064;-77
2021/10/05 00:39:46;;;;;;;7.85;1.45;;;;;13.50;100993.00;;;;4893601;29;20405;-79
2021/10/05 00:42:16;;;;;;;6.00;2.25;;;;;13.50;100991.00;;;;4891279;29;20048;-78
2021/10/05 00:44:45;;;;;;;6.97;1.67;;;;;13.50;101003.00;;;;4891347;29;20055;-79
2021/10/05 00:47:16;;;;;;;6.82;1.55;;;;;13.50;101002.00;;;;4892137;29;20055;-77
2021/10/05 00:49:48;;;;;;;7.78;1.85;;;;;13.40;101010.00;;;;4876968;29;20057;-76
2021/10/05 00:52:20;;;;;;;9.05;1.67;;;;;13.40;101003.00;;;;4893715;29;20581;-77
2021/10/05 00:54:49;;;;;;;17.42;1.70;;;;;13.30;101003.00;;;;4892377;29;20629;-76
2021/10/05 00:57:18;;;;;;;6.80;1.42;;;;;13.20;101015.00;;;;4885475;29;20509;-77
2021/10/05 00:59:48;;;;;;;5.07;1.40;;;;;13.20;101024.00;;;;4873934;29;20073;-77
2021/10/05 01:02:18;;;;;;;5.68;1.80;;;;;13.20;101015.00;;;;4874417;29;20041;-77
2021/10/05 01:04:48;;;;;;;8.52;1.80;;;;;13.20;101016.00;;;;4874644;29;20064;-81
2021/10/05 01:07:19;;;;;;;3.13;1.50;;;;;13.10;101011.00;;;;4874635;29;20052;-78
2021/10/05 01:09:49;;;;;;;7.53;1.67;;;;;13.10;101020.00;;;;4874231;29;20520;-81
2021/10/05 01:12:18;;;;;;;9.10;1.40;;;;;13.00;101014.00;;;;4873960;29;20568;-80
2021/10/05 01:14:48;;;;;;;7.60;2.17;;;;;13.00;101019.00;;;;4874251;29;20504;-76
2021/10/05 01:17:19;;;;;;;6.07;1.35;;;;;13.00;101014.00;;;;4874280;29;20489;-77
2021/10/05 01:19:49;;;;;;;4.95;1.20;;;;;13.00;101017.00;;;;4873494;29;20037;-80
2021/10/05 01:22:19;;;;;;;8.20;1.80;;;;;12.90;101008.00;;;;4873593;29;20068;-79
2021/10/05 01:24:48;;;;;;;9.35;1.52;;;;;12.90;101010.00;;;;4873007;29;20060;-79
2021/10/05 01:27:17;;;;;;;9.98;1.60;;;;;12.90;101021.00;;;;4873512;29;20057;-80
2021/10/05 01:29:47;;;;;;;7.88;1.38;;;;;12.90;101016.00;;;;4872623;29;20049;-79
2021/10/05 01:32:16;;;;;;;3.50;2.65;;;;;12.90;101026.00;;;;4872429;29;20063;-79
2021/10/05 01:34:45;;;;;;;1.33;0.50;;;;;13.00;101021.00;;;;4873253;29;20049;-79
2021/10/05 01:37:15;;;;;;;13.80;1.77;;;;;13.00;101015.00;;;;4874037;29;20059;-78
2021/10/05 01:39:45;;;;;;;12.00;1.55;;;;;13.10;101015.00;;;;4873630;29;20049;-77
2021/10/05 01:42:15;;;;;;;5.15;1.13;;;;;13.10;101015.00;;;;4873290;29;20048;-79
2021/10/05 01:44:45;;;;;;;13.30;1.85;;;;;13.10;101004.00;;;;4874756;29;20049;-78
2021/10/05 01:47:14;;;;;;;9.02;1.55;;;;;13.00;101009.00;;;;4873670;29;20049;-80
2021/10/05 01:49:44;;;;;;;8.85;1.50;;;;;13.00;101004.00;;;;4873029;29;20501;-76
2021/10/05 01:52:13;;;;;;;9.55;2.03;;;;;13.10;101009.00;;;;4873536;29;20053;-81
2021/10/05 01:54:43;;;;;;;8.52;1.60;;;;;13.10;101012.00;;;;4873431;29;20053;-78
2021/10/05 01:57:13;;;;;;;10.48;1.70;;;;;13.10;101016.00;;;;4873435;29;20525;-79
2021/10/05 01:59:42;;;;;;;11.45;2.05;;;;;13.20;101014.00;;;;4873391;29;20045;-78
2021/10/05 02:02:12;;;;;;;10.65;1.85;;;;;13.20;101018.00;;;;4873161;29;20076;-81
2021/10/05 02:04:44;;;;;;;9.13;1.80;;;;;13.20;101004.00;;;;4873548;29;20080;-78
2021/10/05 02:07:14;;;;;;;11.13;2.05;;;;;13.10;101001.00;;;;4873388;29;20049;-82
2021/10/05 02:09:47;;;;;;;7.55;2.00;;;;;13.10;101012.00;;;;4873688;29;20053;-79
2021/10/05 02:12:18;;;;;;;9.60;1.95;;;;;13.20;101001.00;;;;4873400;29;20078;-81
2021/10/05 02:14:48;;;;;;;9.85;1.80;;;;;13.20;101002.00;;;;4873139;29;20041;-81
2021/10/05 02:17:18;;;;;;;7.70;1.90;;;;;13.10;101007.00;;;;4873526;29;20044;-77
2021/10/05 02:19:48;;;;;;;8.05;2.15;;;;;13.10;101001.00;;;;4873297;29;20131;-78
2021/10/05 02:22:18;;;;;;;9.45;2.30;;;;;13.10;101002.00;;;;4873415;29;20053;-79
2021/10/05 02:24:47;;;;;;;8.45;1.95;;;;;13.10;101002.00;;;;4872927;29;20498;-78
2021/10/05 02:27:19;;;;;;;12.27;2.00;;;;;13.10;100983.00;;;;4872880;29;20056;-78
2021/10/05 02:29:49;;;;;;;10.60;2.45;;;;;13.00;101004.00;;;;4873717;29;20079;-79
2021/10/05 02:32:18;;;;;;;15.05;1.90;;;;;12.90;100996.00;;;;4873144;29;20040;-79
2021/10/05 02:34:48;;;;;;;14.30;2.30;;;;;12.90;101002.00;;;;4872843;29;20041;-78
2021/10/05 02:37:18;;;;;;;13.02;2.30;;;;;12.80;100997.00;;;;4873481;29;20045;-78
2021/10/05 02:39:47;;;;;;;9.52;2.03;;;;;12.70;101004.00;;;;4872789;29;20049;-75
2021/10/05 02:42:23;;;;;;;12.52;2.50;;;;;12.70;101000.00;;;;4872992;29;20430;-76
2021/10/05 02:44:54;;;;;;;10.98;2.40;;;;;12.60;101016.00;;;;4873480;29;20049;-81
2021/10/05 02:47:24;;;;;;;9.88;2.53;;;;;12.50;101009.00;;;;4873447;29;20528;-76
2021/10/05 02:49:54;;;;;;;14.15;2.45;;;;;12.40;101009.00;;;;4873520;29;20135;-78
2021/10/05 02:52:24;;;;;;;9.05;2.05;;;;;12.30;101012.00;;;;4874173;29;20048;-78
2021/10/05 02:54:54;;;;;;;8.88;1.88;;;;;12.30;101010.00;;;;4878469;29;20056;-79
2021/10/05 02:57:23;;;;;;;9.52;1.90;;;;;12.30;101014.00;;;;4873683;29;20064;-80
2021/10/05 02:59:53;;;;;;;8.90;1.80;;;;;12.20;101012.00;;;;4875599;29;20048;-77
2021/10/05 03:02:22;;;;;;;5.97;1.70;;;;;12.10;101016.00;;;;4875911;29;20049;-75
2021/10/05 03:04:52;;;;;;;8.75;1.73;;;;;12.00;101023.00;;;;4876250;29;20053;-77
2021/10/05 03:07:21;;;;;;;8.32;2.25;;;;;12.00;101016.00;;;;4875396;29;20061;-80
2021/10/05 03:09:50;;;;;;;15.02;2.45;;;;;12.00;101019.00;;;;4876173;29;20049;-78
2021/10/05 03:12:20;;;;;;;10.13;2.13;;;;;12.00;101019.00;;;;4875867;29;20402;-79
2021/10/05 03:14:49;;;;;;;14.07;2.17;;;;;12.00;101003.00;;;;4875655;29;20465;-80
2021/10/05 03:17:19;;;;;;;16.73;1.92;;;;;12.00;101016.00;;;;4875650;29;20053;-78
2021/10/05 03:19:48;;;;;;;14.52;2.20;;;;;12.00;101006.00;;;;4876031;29;20053;-80
2021/10/05 03:22:18;;;;;;;9.63;2.08;;;;;12.10;101005.00;;;;4875753;29;20049;-81
2021/10/05 03:24:47;;;;;;;11.02;2.08;;;;;12.10;101020.00;;;;4875602;29;20132;-81
2021/10/05 03:27:17;;;;;;;8.10;2.38;;;;;12.10;101008.00;;;;4874400;29;20500;-78
2021/10/05 03:29:46;;;;;;;13.63;2.30;;;;;12.00;100994.00;;;;4875332;29;20114;-78
2021/10/05 03:32:16;;;;;;;9.38;2.40;;;;;12.10;101002.00;;;;4876079;29;20042;-80
2021/10/05 03:34:45;;;;;;;12.75;3.95;;;;;12.00;100995.00;;;;4875827;29;20136;-81
2021/10/05 03:37:14;;;;;;;5.28;2.05;;;;;12.00;101005.00;;;;4875742;29;20049;-76
2021/10/05 03:39:44;;;;;;;13.90;2.30;;;;;12.00;100998.00;;;;4875441;29;20065;-78
2021/10/05 03:42:13;;;;;;;10.00;2.78;;;;;11.90;100994.00;;;;4875120;29;20041;-79
2021/10/05 03:44:43;;;;;;;8.30;2.53;;;;;11.90;100993.00;;;;4875306;29;20136;-76
2021/10/05 03:47:12;;;;;;;11.43;3.42;;;;;11.90;100985.00;;;;4875658;29;20121;-80
2021/10/05 03:49:41;;;;;;;13.80;2.97;;;;;11.80;100995.00;;;;4875649;29;20435;-79
2021/10/05 03:52:11;;;;;;;12.20;2.47;;;;;11.70;100996.00;;;;4872433;29;20051;-79
2021/10/05 03:54:42;;;;;;;16.85;2.92;;;;;11.60;100994.00;;;;4876862;29;20060;-77
2021/10/05 03:57:12;;;;;;;18.75;2.80;;;;;11.50;100985.00;;;;4874970;29;20049;-80
2021/10/05 03:59:42;;;;;;;14.05;2.15;;;;;11.40;101005.00;;;;4876317;29;20041;-80
2021/10/05 04:02:11;;;;;;;15.68;2.40;;;;;11.30;100985.00;;;;4876278;29;20049;-77
2021/10/05 04:04:42;;;;;;;15.52;2.22;;;;;11.20;100998.00;;;;4876627;29;20049;-80
2021/10/05 04:07:12;;;;;;;11.30;1.92;;;;;11.00;100994.00;;;;4875315;29;20536;-82
2021/10/05 04:09:43;;;;;;;8.63;2.28;;;;;11.00;100994.00;;;;4876738;29;20045;-75
2021/10/05 04:12:13;;;;;;;10.13;2.17;;;;;10.80;100982.00;;;;4875808;29;20084;-80
2021/10/05 04:14:44;;;;;;;16.65;2.63;;;;;10.70;100995.00;;;;4876028;29;20063;-76
2021/10/05 04:17:14;;;;;;;9.00;2.13;;;;;10.60;100980.00;;;;4875871;29;20048;-76
2021/10/05 04:19:43;;;;;;;9.38;2.20;;;;;10.50;100982.00;;;;4875513;29;20124;-77
2021/10/05 04:22:13;;;;;;;9.32;2.08;;;;;10.50;100984.00;;;;4875516;29;20072;-77
2021/10/05 04:24:43;;;;;;;7.57;2.05;;;;;10.40;100991.00;;;;4874606;29;20139;-79
2021/10/05 04:27:12;;;;;;;9.60;2.30;;;;;10.30;100987.00;;;;4875237;29;20056;-79
2021/10/05 04:29:42;;;;;;;17.38;3.10;;;;;10.30;100975.00;;;;4875208;29;20453;-78
2021/10/05 04:32:12;;;;;;;16.42;2.28;;;;;10.20;100975.00;;;;4875160;29;20049;-77
2021/10/05 04:34:43;;;;;;;13.52;2.88;;;;;10.20;100976.00;;;;4875196;29;20129;-80
2021/10/05 04:37:12;;;;;;;9.00;2.33;;;;;10.20;100981.00;;;;4875697;29;20060;-79
2021/10/05 04:39:43;;;;;;;14.25;2.40;;;;;10.20;100986.00;;;;4873559;29;20104;-82
2021/10/05 04:42:13;;;;;;;10.90;2.20;;;;;10.20;100989.00;;;;4874796;29;20049;-81
2021/10/05 04:44:42;;;;;;;12.77;2.63;;;;;10.10;100991.00;;;;4874874;29;20443;-77
2021/10/05 04:47:15;;;;;;;14.73;2.58;;;;;10.10;100985.00;;;;4874819;29;20053;-75
2021/10/05 04:49:47;;;;;;;9.40;2.20;;;;;10.10;100986.00;;;;4873776;29;20124;-79
2021/10/05 04:52:17;;;;;;;9.07;2.08;;;;;10.10;100997.00;;;;4874466;29;20052;-80
2021/10/05 04:54:49;;;;;;;16.55;2.30;;;;;10.10;100988.00;;;;4874943;29;20512;-77
2021/10/05 04:57:21;;;;;;;11.98;2.40;;;;;10.20;101001.00;;;;4874740;29;20052;-79
2021/10/05 04:59:51;;;;;;;11.88;2.33;;;;;10.10;100991.00;;;;4875077;29;20079;-81
2021/10/05 05:02:20;;;;;;;11.27;2.40;;;;;10.10;100985.00;;;;4874968;29;20060;-77
2021/10/05 05:04:51;;;;;;;21.23;2.93;;;;;10.10;100996.00;;;;4874644;29;20142;-80
2021/10/05 05:07:24;;;;;;;11.75;2.20;;;;;10.10;100965.00;;;;4873933;29;20060;-78
2021/10/05 05:09:53;;;;;;;9.20;2.10;;;;;10.10;100981.00;;;;4874277;29;20093;-78
2021/10/05 05:12:23;;;;;;;15.30;2.47;;;;;10.10;100981.00;;;;4874518;29;20055;-78
2021/10/05 05:14:52;;;;;;;11.68;2.95;;;;;10.10;100980.00;;;;4874998;29;20051;-77
2021/10/05 05:17:22;;;;;;;13.68;2.47;;;;;10.10;101008.00;;;;4874635;29;20068;-78
2021/10/05 05:19:52;;;;;;;10.07;2.15;;;;;10.10;100991.00;;;;4874562;29;20092;-78
2021/10/05 05:22:22;;;;;;;13.55;2.40;;;;;10.10;100990.00;;;;4874892;29;20041;-80
2021/10/05 05:24:55;;;;;;;7.80;1.40;;;;;10.10;100984.00;;;;4874548;29;20109;-80
2021/10/05 05:27:25;;;;;;;11.95;2.20;;;;;10.10;100995.00;;;;4874253;29;20513;-78
2021/10/05 05:29:54;;;;;;;15.25;2.28;;;;;10.10;100967.00;;;;4874962;29;20053;-78
2021/10/05 05:32:24;;;;;;;20.08;1.60;;;;;10.00;100979.00;;;;4874751;29;20068;-78
2021/10/05 05:34:56;;;;;;;14.73;2.10;;;;;10.00;100998.00;;;;4874254;29;20129;-79
2021/10/05 05:37:27;;;;;;;13.02;2.08;;;;;10.00;100984.00;;;;4874147;29;20402;-80
2021/10/05 05:39:56;;;;;;;15.23;2.15;;;;;10.00;100977.00;;;;4874524;29;20505;-77
2021/10/05 05:42:27;;;;;;;11.20;1.83;;;;;10.00;100963.00;;;;4873555;29;20555;-81
2021/10/05 05:44:56;;;;;;;8.63;1.60;;;;;9.90;100949.00;;;;4874918;29;20341;-77
2021/10/05 05:47:26;;;;;;;12.40;2.13;;;;;9.80;100962.00;;;;4874122;29;20045;-78
2021/10/05 05:49:56;;;;;;;11.10;1.48;;;;;9.70;100958.00;;;;4874431;29;20053;-79
2021/10/05 05:52:25;;;;;;;12.75;1.92;;;;;9.70;100956.00;;;;4882556;29;20049;-78
2021/10/05 05:54:55;;;;;;;13.32;2.00;;;;;9.70;100950.00;;;;4881847;29;20064;-78
2021/10/05 05:57:24;;;;;;;11.02;1.80;;;;;9.60;100947.00;;;;4874988;29;20045;-76
2021/10/05 05:59:54;;;;;;;13.20;1.83;;;;;9.60;100960.00;;;;4872534;29;20053;-80
2021/10/05 06:02:27;;;;;;;13.10;1.90;;;;;9.60;100986.00;;;;4872792;29;20432;-79
2021/10/05 06:04:58;;;;;;;9.52;1.55;;;;;9.60;100984.00;;;;4873566;29;20040;-78
2021/10/05 06:07:27;;;;;;;13.27;1.50;;;;;9.60;100969.00;;;;4874151;29;20126;-79
2021/10/05 06:09:58;;;;;;;14.25;2.47;;;;;9.60;100987.00;;;;4873439;29;20067;-77
2021/10/05 06:12:37;;;;;;;14.98;1.92;;;;;9.50;100992.00;;;;4873346;29;20067;-78
2021/10/05 06:15:12;;;;;;;8.97;1.43;;;;;9.60;100972.00;;;;4871745;29;20123;-80
2021/10/05 06:17:43;;;;;;;14.43;1.95;;;;;9.60;101003.00;;;;4873779;29;20060;-80
2021/10/05 06:20:20;;;;;;;10.15;1.75;;;;;9.50;100983.00;;;;4873489;29;20097;-80
2021/10/05 06:22:50;;;;;;;9.30;1.42;;;;;9.40;100982.00;;;;4873531;29;20083;-77
2021/10/05 06:25:25;;;;;;;;;;;;;9.40;100969.00;;;;4874203;29;20033;-79
2021/10/05 06:27:56;;;;;;;5.20;1.08;;;;;9.20;100974.00;;;;4872814;29;19927;-79
2021/10/05 06:30:28;;;;;;;12.55;1.65;;;;;9.20;100949.00;;;;4873424;29;20052;-78
2021/10/05 06:32:58;;;;;;;11.57;1.55;;;;;9.20;100975.00;;;;4873110;29;20076;-78
2021/10/05 06:35:30;;;;;;;12.65;1.42;;;;;9.20;100969.00;;;;4873451;29;20140;-79
2021/10/05 06:38:01;;;;;;;14.13;2.03;;;;;9.20;100964.00;;;;4873458;29;20055;-78
2021/10/05 06:40:33;;;;;;;16.27;1.40;;;;;9.20;100955.00;;;;4872679;29;20055;-80
2021/10/05 06:43:03;;;;;;;16.33;2.63;;;;;9.20;100943.00;;;;4873422;29;20528;-76
2021/10/05 06:45:33;;;;;;;10.25;1.90;;;;;9.20;100966.00;;;;4872545;29;20076;-79
2021/10/05 06:48:11;;;;;;;15.32;2.45;;;;;9.20;100959.00;;;;4871997;29;20568;-79
2021/10/05 06:50:57;;;;;;;8.65;1.75;;;;;9.20;100945.00;;;;4815277;29;20058;-81
2021/10/05 06:57:51;;;;;;;9.88;1.90;;;;;9.10;100943.00;;;;4815950;29;20507;-76
2021/10/05 07:00:21;;;;;;;11.25;1.70;;;;;9.00;100939.00;;;;4836345;29;20105;-76
2021/10/05 07:02:51;;;;;;;10.60;1.60;;;;;8.90;100935.00;;;;4873190;29;20135;-77
2021/10/05 07:05:22;;;;;;;6.50;1.40;;;;;9.00;100932.00;;;;4873662;29;20088;-79
2021/10/05 07:07:52;;;;;;;10.07;1.55;;;;;9.00;100947.00;;;;4872973;29;20394;-78
2021/10/05 07:10:23;;;;;;;15.23;2.40;;;;;8.80;100946.00;;;;4872710;29;20053;-77
2021/10/05 07:12:53;;;;;;;13.98;2.20;;;;;8.60;100967.00;;;;4872980;29;20501;-78
2021/10/05 07:15:23;;;;;;;9.40;1.20;;;;;8.60;100945.00;;;;4873085;29;20053;-78
2021/10/05 07:17:57;;;;;;;9.55;1.70;;;;;8.50;100960.00;;;;4873923;29;20156;-77
2021/10/05 07:20:30;;;;;;;11.60;1.50;;;;;8.40;100943.00;;;;4871491;29;20128;-79
2021/10/05 07:23:00;;;;;;;13.80;1.60;;;;;8.30;100948.00;;;;4872977;29;20045;-77
2021/10/05 07:25:31;;;;;;;16.15;2.55;;;;;8.30;100943.00;;;;4873563;29;20037;-79
2021/10/05 07:28:00;;;;;;;10.60;1.67;;;;;8.40;100928.00;;;;4875856;29;20056;-78
2021/10/05 07:30:30;;;;;;;8.20;1.83;;;;;8.40;100912.00;;;;4877225;29;20527;-80
2021/10/05 07:33:03;;;;;;;6.28;1.10;;;;;8.30;100906.00;;;;4876712;29;20051;-78
2021/10/05 07:35:33;;;;;;;9.27;1.58;;;;;8.40;100924.00;;;;4876181;29;20105;-76
2021/10/05 07:38:04;;;;;;;9.23;1.67;;;;;8.30;100903.00;;;;4876439;29;20049;-77
2021/10/05 07:40:33;;;;;;;11.20;1.80;;;;;8.40;100925.00;;;;4877140;29;20057;-80
2021/10/05 07:43:03;;;;;;;10.13;1.40;;;;;8.30;100928.00;;;;4874850;29;20053;-76
2021/10/05 07:45:34;;;;;;;9.13;1.67;;;;;8.30;100926.00;;;;4876213;29;20324;-77
2021/10/05 07:48:04;;;;;;;16.23;2.35;;;;;8.30;100948.00;;;;4876281;29;20057;-77
2021/10/05 07:50:34;;;;;;;16.42;1.83;;;;;8.20;100939.00;;;;4875816;29;20109;-77
2021/10/05 07:53:04;;;;;;;17.33;1.80;;;;;8.10;100952.00;;;;4876236;29;20105;-76
2021/10/05 07:55:34;;;;;;;18.10;2.22;;;;;8.10;100956.00;;;;4876075;29;20061;-79
2021/10/05 07:58:03;;;;;;;19.00;2.13;;;;;8.00;100964.00;;;;4875811;29;20055;-79
2021/10/05 08:00:34;;;;;;;11.83;1.80;;;;;8.00;100976.00;;;;4875261;29;20049;-79
2021/10/05 08:03:04;;;;;;;11.88;1.80;;;;;8.00;100975.00;;;;4875574;29;20069;-79
2021/10/05 08:05:33;;;;;;;7.60;1.75;;;;;8.00;100972.00;;;;4875605;29;20052;-81
2021/10/05 08:08:08;;;;;;;6.82;1.50;;;;;8.00;100975.00;;;;4875452;29;20160;-79
2021/10/05 08:10:42;;;;;;;17.33;2.28;;;;;7.90;100975.00;;;;4875688;29;20099;-79
2021/10/05 08:13:11;;;;;;;17.67;1.88;;;;;7.80;100984.00;;;;4875281;29;20080;-77
2021/10/05 08:15:41;;;;;;;10.48;1.15;;;;;7.80;100991.00;;;;4876008;29;20049;-78
2021/10/05 08:18:10;;;;;;;12.07;2.03;;;;;7.80;100983.00;;;;4875531;29;20528;-79
2021/10/05 08:20:41;;;;;;;12.05;1.38;;;;;7.90;100984.00;;;;4875894;29;20394;-77
2021/10/05 08:23:11;;;;;;;8.13;1.48;;;;;7.80;100987.00;;;;4875389;29;20128;-78
2021/10/05 08:25:43;;;;;;;15.43;1.70;;;;;7.80;100995.00;;;;4874808;29;20045;-77
2021/10/05 08:28:13;;;;;;;6.70;1.58;;;;;7.70;101000.00;;;;4874745;29;20116;-76
2021/10/05 08:30:43;;;;;;;12.82;2.17;;;;;7.80;100992.00;;;;4874974;29;20060;-77
2021/10/05 08:33:12;;;;;;;13.30;2.05;;;;;7.80;100991.00;;;;4874438;29;20061;-79
2021/10/05 08:35:41;;;;;;;14.93;2.10;;;;;7.80;101007.00;;;;4875074;29;20077;-78
2021/10/05 08:38:11;;;;;;;11.45;2.03;;;;;7.70;101016.00;;;;4874313;29;20060;-78
2021/10/05 08:40:40;;;;;;;20.27;1.98;;;;;7.70;101024.00;;;;4875369;29;20049;-80
2021/10/05 08:43:10;;;;;;;10.90;1.60;;;;;7.70;101007.00;;;;4874826;29;20097;-77
2021/10/05 08:45:44;;;;;;;8.82;1.45;;;;;7.70;101018.00;;;;4875011;29;20048;-76
2021/10/05 08:48:14;;;;;;;18.90;1.98;;;;;7.70;101013.00;;;;4875024;29;20620;-78
2021/10/05 08:50:44;;;;;;;7.22;1.50;;;;;7.60;101042.00;;;;4874813;29;20420;-77
2021/10/05 08:53:13;;;;;;;15.80;1.65;;;;;7.60;101019.00;;;;4874907;29;20969;-80
2021/10/05 08:55:45;;;;;;;10.98;1.60;;;;;7.60;101047.00;;;;4858370;29;20053;-81
2021/10/05 08:58:15;;;;;;;12.38;1.70;;;;;7.70;101052.00;;;;4874351;29;20045;-78
2021/10/05 09:00:45;;;;;;;10.35;1.77;;;;;7.70;101033.00;;;;4876449;29;20073;-75
2021/10/05 09:03:23;;;;;;;12.35;2.13;;;;;7.70;101047.00;;;;4882871;29;20505;-79
2021/10/05 09:05:53;;;;;;;10.57;1.73;;;;;7.60;101062.00;;;;4880137;29;20045;-78
2021/10/05 09:08:28;;;;;;;9.23;1.58;;;;;7.60;101062.00;;;;4874289;29;20065;-79
2021/10/05 09:11:02;;;;;;;13.80;2.03;;;;;7.70;101055.00;;;;4874505;29;20752;-78
2021/10/05 09:13:34;;;;;;;12.00;1.70;;;;;7.60;101060.00;;;;4874261;29;20525;-81
2021/10/05 09:16:18;;;;;;;11.07;1.63;;;;;7.60;101075.00;;;;4874212;29;20055;-79
2021/10/05 09:18:55;;;;;;;15.15;2.08;;;;;7.60;101071.00;;;;4874023;29;20041;-78
2021/10/05 09:21:29;;;;;;;14.73;2.17;;;;;7.70;101069.00;;;;4873902;29;20136;-77
2021/10/05 09:24:24;;;;;;;18.52;2.50;;;;;7.70;101068.00;;;;4874473;29;20045;-78
2021/10/05 09:26:59;;;;;;;6.88;2.28;;;;;7.80;101073.00;;;;4872111;29;20064;-77
2021/10/05 09:29:30;;;;;;;11.98;1.75;;;;;7.80;101090.00;;;;4873894;29;20521;-78
2021/10/05 09:32:14;;;;;;;10.45;1.50;;;;;7.90;101078.00;;;;4873753;29;20510;-79
2021/10/05 09:34:58;;;;;;;8.00;1.50;;;;;8.00;101076.00;;;;4872867;29;20080;-77
2021/10/05 09:37:30;;;;;;;8.75;1.40;;;;;8.00;101069.00;;;;4873963;29;20439;-78
2021/10/05 09:40:12;;;;;;;15.75;1.75;;;;;8.20;101083.00;;;;4874361;29;20045;-80
2021/10/05 09:42:47;;;;;;;19.20;2.03;;;;;8.30;101075.00;;;;4873593;29;20083;-77
2021/10/05 09:45:21;;;;;;;14.13;2.33;;;;;8.40;101066.00;;;;4873636;29;20053;-79
2021/10/05 09:48:08;;;;;;;14.88;2.28;;;;;8.60;101079.00;;;;4870391;29;20478;-77
2021/10/05 09:50:39;;;;;;;14.80;2.10;;;;;8.80;101085.00;;;;4873072;29;20725;-76
2021/10/05 09:53:11;;;;;;;16.45;2.55;;;;;8.90;101100.00;;;;4873464;29;20053;-77
2021/10/05 09:55:46;;;;;;;22.67;3.60;;;;;9.30;101086.00;;;;4873548;29;20720;-77
2021/10/05 09:58:16;;;;;;;33.20;4.55;;;;;9.50;101087.00;;;;4873528;29;20037;-79
2021/10/05 10:00:50;;;;;;;27.33;3.63;;;;;9.80;101081.00;;;;4873878;29;20065;-75
2021/10/05 10:03:20;;;;;;;21.05;2.53;;;;;10.10;101088.00;;;;4873545;29;20451;-78
2021/10/05 10:05:50;;;;;;;10.48;2.22;;;;;10.60;101022.00;;;;4874385;29;20294;-77
2021/10/05 10:08:21;;;;;;;11.68;2.30;;;;;12.00;101019.00;;;;4873855;29;20060;-79
2021/10/05 10:10:51;;;;;;;10.50;1.75;;;;;13.40;100972.00;;;;4873611;29;20127;-78
2021/10/05 10:13:21;;;;;;;13.38;3.05;;;;;13.00;100985.00;;;;4873991;29;20493;-77
2021/10/05 10:15:56;;;;;;;19.13;2.35;;;;;12.60;101015.00;;;;4873063;29;20152;-78
2021/10/05 10:18:26;;;;;;;13.65;2.55;;;;;13.20;100973.00;;;;4873752;29;20041;-79
2021/10/05 10:21:04;;;;;;;18.35;2.65;;;;;14.20;100915.00;;;;4873659;29;20049;-79
2021/10/05 10:23:37;;;;;;;32.05;4.25;;;;;16.30;100858.00;;;;4873322;29;20738;-78
2021/10/05 10:26:08;;;;;;;17.05;2.47;;;;;16.00;100925.00;;;;4872269;29;20113;-82
2021/10/05 10:28:41;;;;;;;23.48;4.00;;;;;14.40;100975.00;;;;4873404;29;20049;-80
2021/10/05 10:31:26;;;;;;;32.85;5.18;;;;;14.40;101011.00;;;;4873745;29;20049;-82
2021/10/05 10:33:56;;;;;;;16.65;3.72;;;;;14.40;100945.00;;;;4872401;29;20413;-79
2021/10/05 10:36:40;;;;;;;20.40;3.47;;;;;18.50;100844.00;;;;4873427;29;20049;-79
2021/10/05 10:39:19;;;;;;;14.50;4.43;;;;;19.70;100844.00;;;;4872394;29;20124;-80
2021/10/05 10:41:54;;;;;;;24.33;3.28;;;;;20.40;100853.00;;;;4873256;29;20137;-80
2021/10/05 10:44:39;;;;;;;19.38;2.67;;;;;20.90;100844.00;;;;4873152;29;20528;-78
2021/10/05 10:47:11;;;;;;;22.95;3.75;;;;;20.30;100835.00;;;;4872464;29;20466;-81
2021/10/05 10:49:53;;;;;;;18.00;4.13;;;;;20.50;100810.00;;;;4873397;29;20535;-79
2021/10/05 10:52:32;;;;;;;11.63;1.88;;;;;21.00;100793.00;;;;4873025;29;20124;-82
2021/10/05 10:55:03;;;;;;;28.92;5.72;;;;;20.80;100803.00;;;;4873473;29;20410;-79
2021/10/05 10:57:41;;;;;;;14.90;2.20;;;;;21.50;100811.00;;;;4873796;29;20081;-79
2021/10/05 11:00:31;;;;;;;9.48;1.50;;;;;22.20;100816.00;;;;4873867;29;20046;-78
2021/10/05 11:03:03;;;;;;;15.48;2.90;;;;;21.60;100823.00;;;;4876453;29;20601;-84
2021/10/05 11:05:36;;;;;;;30.00;5.20;;;;;21.90;100844.00;;;;4876374;29;20115;-81
2021/10/05 11:08:12;;;;;;;32.47;5.63;;;;;19.60;100943.00;;;;4875939;29;20517;-77
2021/10/05 11:10:41;;;;;;;16.00;2.55;;;;;19.70;100883.00;;;;4876591;29;20055;-80
2021/10/05 11:13:11;;;;;;;6.63;1.85;;;;;18.60;100950.00;;;;4876811;29;20052;-79
2021/10/05 11:15:49;;;;;;;9.75;1.70;;;;;20.10;100923.00;;;;4876726;29;20167;-78
2021/10/05 11:18:24;;;;;;;10.60;1.92;;;;;16.80;100996.00;;;;4876244;29;20053;-79
2021/10/05 11:20:56;;;;;;;10.77;2.30;;;;;16.30;101027.00;;;;4876187;29;20455;-84
2021/10/05 11:23:26;;;;;;;18.30;3.33;;;;;16.00;101033.00;;;;4877281;29;20049;-80
2021/10/05 11:26:00;;;;;;;17.75;2.40;;;;;17.10;101013.00;;;;4877129;29;20052;-84
2021/10/05 11:28:33;;;;;;;18.80;6.68;;;;;18.70;100985.00;;;;4874989;29;20573;-81
2021/10/05 11:31:06;;;;;;;4.63;1.50;;;;;20.10;100971.00;;;;4874611;29;20149;-82
2021/10/05 11:33:40;;;;;;;7.03;1.83;;;;;20.60;100939.00;;;;4876216;29;20492;-79
2021/10/05 11:36:15;;;;;;;13.32;2.08;;;;;22.70;100875.00;;;;4876303;29;20130;-79
2021/10/05 11:38:49;;;;;;;8.82;1.70;;;;;22.90;100848.00;;;;4875925;29;20099;-78
2021/10/05 11:41:20;;;;;;;19.70;4.72;;;;;23.00;100834.00;;;;4875731;29;20517;-80
2021/10/05 11:43:52;;;;;;;14.18;2.00;;;;;23.00;100843.00;;;;4875169;29;20437;-80
2021/10/05 11:46:25;;;;;;;7.03;1.60;;;;;22.80;100839.00;;;;4876094;29;20060;-78
2021/10/05 11:48:57;;;;;;;14.73;2.92;;;;;23.40;100865.00;;;;4876100;29;20077;-79
2021/10/05 11:51:27;;;;;;;4.53;1.15;;;;;23.90;100877.00;;;;4876345;29;21253;-82
2021/10/05 11:53:59;;;;;;;21.95;2.60;;;;;23.70;100897.00;;;;4875585;29;20092;-78
2021/10/05 11:56:28;;;;;;;6.30;1.20;;;;;23.50;100893.00;;;;4875913;29;20579;-79
2021/10/05 11:58:58;;;;;;;7.28;1.45;;;;;23.80;100906.00;;;;4875425;29;20447;-79
2021/10/05 12:01:30;;;;;;;8.55;1.88;;;;;23.40;100888.00;;;;4875969;29;20072;-81
2021/10/05 12:04:07;;;;;;;8.93;1.92;;;;;22.20;100878.00;;;;4880199;29;20089;-79
2021/10/05 12:06:41;;;;;;;5.63;1.33;;;;;22.40;100887.00;;;;4884924;29;20116;-78
2021/10/05 12:09:18;;;;;;;13.02;2.58;;;;;23.00;100887.00;;;;4875685;29;20611;-80
2021/10/05 12:11:48;;;;;;;7.28;1.98;;;;;22.40;100912.00;;;;4875934;29;20068;-83
2021/10/05 12:14:22;;;;;;;6.28;1.70;;;;;22.50;100946.00;;;;4875064;29;20052;-80
2021/10/05 12:17:15;;;;;;;7.22;1.50;;;;;22.00;100984.00;;;;4876820;29;20052;-78
2021/10/05 12:19:55;;;;;;;5.13;2.85;;;;;21.70;100998.00;;;;4875758;29;20055;-80
2021/10/05 12:22:26;;;;;;;11.23;1.77;;;;;21.60;101013.00;;;;4875693;29;20048;-79
2021/10/05 12:24:59;;;;;;;10.38;1.85;;;;;21.40;101002.00;;;;4876017;29;20065;-81
2021/10/05 12:27:29;;;;;;;12.05;2.20;;;;;21.00;101006.00;;;;4876115;29;20560;-80
2021/10/05 12:30:30;;;;;;;6.65;1.50;;;;;21.40;101016.00;;;;4877564;29;20056;-80
2021/10/05 12:33:10;;;;;;;10.77;3.97;;;;;21.60;101007.00;;;;4876277;29;20101;-81